Home   Weather   USA   Chico   Past weeks
Flag for USA

Past Weather in Chico, California, USA — Yesterday and Last 2 Weeks

Currently: 68 °F. Clear. (Weather station: Chico Municipal, USA). See more current weather

Past Weather in Chico — Graph

°F

Chico Temperature Yesterday

Maximum temperature yesterday: 77 °F (at 3:51 pm)
Minimum temperature yesterday: 46 °F (at 3:15 am)
Average temperature yesterday: 60 °F

High & Low Weather Summary for the Past Weeks

 TemperatureHumidityPressure
High82 °F (Apr 1, 3:47 pm)87% (Mar 28, 6:15 am)30.30 "Hg (Mar 28, 6:15 am)
Low43 °F (Mar 30, 7:47 am)10% (Mar 30, 10:35 pm)29.85 "Hg (Apr 1, 5:47 pm)
Average59 °F48%30.08 "Hg
* Reported Mar 26 6:50 pm — Apr 10 6:50 pm, Chico. Weather by CustomWeather, © 2021

Note: Actual official high and low records may vary slightly from our data, if they occured in-between our weather recording intervals... More about our weather records

Chico Weather History for the Previous 24 Hours

Scroll right to see more
 ConditionsComfort  
Time TempWeatherWind HumidityBarometerVisibility
6:50 pm
Sat, Apr 10
77 °FSunny.6 mph17%29.89 "Hg20 mi
5:48 pm77 °FSunny.12 mph13%29.91 "Hg20 mi
4:53 pm79 °FSunny.14 mph13%29.93 "HgN/A
3:47 pm79 °FSunny.10 mph16%29.95 "Hg20 mi
2:49 pm75 °FSunny.7 mph19%29.98 "Hg25 mi
1:54 pm73 °FSunny.8 mph27%30.01 "Hg20 mi
12:53 pm70 °FSunny.No wind31%30.04 "Hg20 mi
11:48 am64 °FSunny.7 mph46%30.08 "Hg20 mi
10:47 am59 °FSunny.7 mph59%30.10 "Hg25 mi
9:50 am55 °FCool.5 mph63%30.11 "HgN/A
8:47 am54 °FSunny.6 mph67%30.12 "Hg25 mi
7:47 am48 °FSunny.No wind82%30.11 "Hg25 mi
6:50 am48 °FSunny.5 mph76%30.10 "Hg10 mi
6:15 am48 °FClear.3 mph82%30.10 "Hg10 mi
5:55 am48 °FClear.5 mph82%30.10 "Hg10 mi
5:35 am48 °FClear.No wind82%30.10 "Hg10 mi
5:15 am48 °FClear.5 mph82%30.10 "Hg10 mi
4:55 am50 °FClear.No wind76%30.10 "Hg10 mi
4:35 am50 °FClear.No wind82%30.10 "Hg10 mi
4:15 am52 °FClear.No wind77%30.10 "Hg10 mi
3:55 am52 °FClear.3 mph77%30.09 "Hg10 mi
3:35 am54 °FClear.No wind72%30.09 "Hg10 mi
3:15 am54 °FClear.No wind72%30.08 "Hg10 mi
2:55 am54 °FClear.7 mph72%30.08 "Hg10 mi
2:35 am54 °FClear.6 mph72%30.08 "Hg10 mi
2:15 am55 °FClear.3 mph67%30.08 "Hg10 mi
1:55 am55 °FClear.5 mph67%30.07 "Hg10 mi
1:35 am57 °FClear.3 mph63%30.07 "Hg10 mi
1:15 am57 °FClear.3 mph55%30.07 "Hg10 mi
12:55 am59 °FClear.6 mph51%30.06 "Hg10 mi
12:35 am59 °FClear.7 mph51%30.06 "Hg10 mi
12:15 am59 °FClear.6 mph51%30.06 "Hg10 mi
11:55 pm
Fri, Apr 9
63 °FClear.8 mph45%30.04 "Hg10 mi
11:35 pm64 °FClear.10 mph43%30.04 "Hg10 mi
11:15 pm64 °FClear.8 mph43%30.04 "Hg10 mi
10:55 pm64 °FClear.9 mph43%30.03 "Hg10 mi
10:35 pm64 °FClear.12 mph40%30.03 "Hg10 mi
10:15 pm63 °FClear.No wind42%30.02 "Hg10 mi
9:55 pm64 °FClear.6 mph40%30.01 "Hg10 mi
9:35 pm64 °FClear.No wind37%30.01 "Hg10 mi
Weather by CustomWeather, © 2021

See weather overview